Time;durP1;ratioP1;P1;durP2;ratioP2;P2;SDS_P1;SDS_P2;PMS_P1;PMS_P2;Temp;Humidity;BMP_temperature;BMP_pressure;BME280_temperature;BME280_humidity;BME280_pressure;Samples;Min_cycle;Max_cycle;Signal;HPM_P1;HPM_P2
2023/11/27 07:45:11;;;;;;;22.40;16.10;;;;;;;-2.69;76.95;96344.43;104897;1261;99393;-84
2023/11/27 07:47:40;;;;;;;23.20;16.20;;;;;;;-2.66;76.91;96344.16;104584;1263;102731;-83
2023/11/27 07:50:09;;;;;;;22.10;16.10;;;;;;;-2.63;76.99;96342.22;104582;1259;101238;-86
2023/11/27 07:52:37;;;;;;;23.30;15.80;;;;;;;-2.59;77.03;96341.16;104693;1278;100153;-86
2023/11/27 07:55:07;;;;;;;33.70;23.40;;;;;;;-2.54;77.11;96345.04;104618;1273;97949;-84
2023/11/27 07:57:35;;;;;;;35.30;26.30;;;;;;;-2.48;77.05;96344.12;104535;1264;98443;-82
2023/11/27 08:00:11;;;;;;;35.00;25.60;;;;;;;-2.44;76.94;96347.69;104630;1270;103587;-83
2023/11/27 08:02:39;;;;;;;37.20;25.80;;;;;;;-2.40;76.86;96349.91;104472;1262;101384;-83
2023/11/27 08:05:08;;;;;;;38.70;26.70;;;;;;;-2.37;76.88;96344.81;104608;1262;100166;-83
2023/11/27 08:07:36;;;;;;;37.90;25.80;;;;;;;-2.33;76.94;96344.64;104582;1264;98017;-82
2023/11/27 08:10:07;;;;;;;44.20;29.70;;;;;;;-2.30;76.88;96345.05;104631;1261;98498;-74
2023/11/27 08:12:36;;;;;;;42.60;30.30;;;;;;;-2.27;76.82;96343.44;104690;1261;103781;-75
2023/11/27 08:15:06;;;;;;;39.50;28.20;;;;;;;-2.25;76.85;96344.50;104402;1264;102021;-73
2023/11/27 08:17:34;;;;;;;36.50;23.90;;;;;;;-2.31;76.72;96348.45;104660;1262;100098;-74
2023/11/27 08:20:04;;;;;;;31.70;20.50;;;;;;;-2.36;76.67;96348.81;104650;1261;98756;-73
2023/11/27 08:22:32;;;;;;;23.90;19.10;;;;;;;-2.37;76.70;96348.96;104570;1266;98406;-75
2023/11/27 08:25:00;;;;;;;25.30;19.00;;;;;;;-2.37;76.83;96349.23;104592;1274;103891;-74
2023/11/27 08:27:31;;;;;;;20.40;17.10;;;;;;;-2.32;76.90;96348.22;104616;1262;101430;-75
2023/11/27 08:29:59;;;;;;;21.10;18.20;;;;;;;-2.27;76.91;96346.64;104569;1266;100041;-84
2023/11/27 08:32:29;;;;;;;23.60;19.10;;;;;;;-2.23;76.85;96344.48;104540;1273;97936;-83
2023/11/27 08:34:58;;;;;;;32.20;24.20;;;;;;;-2.20;76.83;96345.57;104643;1262;99117;-83
2023/11/27 08:37:26;;;;;;;42.60;27.40;;;;;;;-2.18;76.95;96341.09;104662;1263;103815;-84
2023/11/27 08:39:54;;;;;;;37.40;26.60;;;;;;;-2.15;76.93;96349.60;104649;1260;99318;-85
2023/11/27 08:42:22;;;;;;;27.20;19.90;;;;;;;-2.12;76.87;96346.19;104605;1262;99928;-84
2023/11/27 08:44:50;;;;;;;24.90;17.70;;;;;;;-2.12;76.79;96344.38;104614;1256;97940;-84
2023/11/27 08:47:18;;;;;;;22.10;17.30;;;;;;;-2.14;76.73;96344.58;104719;1259;97913;-75
2023/11/27 08:49:46;;;;;;;29.30;21.40;;;;;;;-2.15;76.83;96352.31;104613;1264;102542;-83
2023/11/27 08:52:14;;;;;;;37.00;27.30;;;;;;;-2.14;76.95;96350.63;104723;1270;100362;-74
2023/11/27 08:54:42;;;;;;;39.70;32.10;;;;;;;-2.14;76.85;96343.52;104699;1261;99835;-73
2023/11/27 08:57:10;;;;;;;47.60;34.10;;;;;;;-2.12;76.96;96346.14;104698;1259;98899;-74
2023/11/27 08:59:38;;;;;;;72.90;46.90;;;;;;;-2.09;77.11;96341.67;104490;1265;98553;-75
2023/11/27 09:02:06;;;;;;;87.80;52.50;;;;;;;-2.10;77.06;96340.88;104802;1263;103789;-83
2023/11/27 09:04:34;;;;;;;99.40;60.30;;;;;;;-2.10;77.12;96338.02;104689;1262;101324;-83
2023/11/27 09:07:02;;;;;;;105.90;66.00;;;;;;;-2.08;77.17;96336.27;104672;1260;98991;-83
2023/11/27 09:09:31;;;;;;;61.20;40.50;;;;;;;-2.05;77.27;96332.70;104649;1260;98009;-82
2023/11/27 09:11:59;;;;;;;42.20;29.90;;;;;;;-1.98;77.31;96334.45;104567;1265;98713;-74
2023/11/27 09:14:27;;;;;;;60.00;38.70;;;;;;;-1.91;77.34;96339.30;104710;1260;103462;-75
2023/11/27 09:16:54;;;;;;;55.90;34.40;;;;;;;-1.87;77.39;96338.69;104744;1271;100222;-75
2023/11/27 09:19:22;;;;;;;43.20;27.80;;;;;;;-1.79;77.36;96336.69;104720;1261;99281;-75
2023/11/27 09:21:50;;;;;;;37.20;23.80;;;;;;;-1.77;77.13;96331.00;104662;1260;98078;-75
2023/11/27 09:24:18;;;;;;;34.00;24.50;;;;;;;-1.84;76.88;96334.55;104762;1259;98988;-75
2023/11/27 09:26:47;;;;;;;38.30;26.00;;;;;;;-1.84;77.01;96333.54;104793;1259;102690;-75
2023/11/27 09:29:14;;;;;;;38.30;24.90;;;;;;;-1.83;77.10;96329.48;104710;1259;100199;-76
2023/11/27 09:31:42;;;;;;;36.80;24.10;;;;;;;-1.87;77.11;96330.45;104647;1260;106693;-83
2023/11/27 09:34:10;;;;;;;33.10;20.60;;;;;;;-1.90;77.18;96327.59;104740;1259;97929;-84
2023/11/27 09:36:41;;;;;;;31.30;20.90;;;;;;;-1.92;77.27;96328.15;104744;1260;98335;-84
2023/11/27 09:39:10;;;;;;;31.40;21.70;;;;;;;-1.93;77.34;96327.17;104736;1270;103274;-81
2023/11/27 09:41:39;;;;;;;33.50;23.50;;;;;;;-1.92;77.53;96323.08;104557;1273;101460;-83
2023/11/27 09:44:10;;;;;;;46.20;27.40;;;;;;;-1.89;77.52;96320.75;104613;1263;99936;-83
2023/11/27 09:46:38;;;;;;;47.30;30.80;;;;;;;-1.85;77.61;96319.19;104641;1263;98106;-84
2023/11/27 09:49:10;;;;;;;52.00;31.90;;;;;;;-1.88;77.79;96322.67;104817;1257;98418;-74
2023/11/27 09:51:40;;;;;;;37.40;26.10;;;;;;;-1.89;77.77;96324.52;104721;1259;103802;-81
2023/11/27 09:54:12;;;;;;;39.20;25.70;;;;;;;-1.87;78.00;96322.88;104849;1260;101701;-83
2023/11/27 09:56:40;;;;;;;36.80;25.90;;;;;;;-1.88;78.07;96315.59;104576;1275;99233;-84
2023/11/27 09:59:10;;;;;;;35.00;23.80;;;;;;;-1.85;78.06;96312.10;104752;1261;97958;-82
2023/11/27 10:01:39;;;;;;;51.20;32.20;;;;;;;-1.77;78.08;96310.23;104664;1273;98454;-75
2023/11/27 10:04:08;;;;;;;44.90;28.70;;;;;;;-1.72;78.17;96309.34;104755;1261;103835;-74
2023/11/27 10:06:41;;;;;;;38.40;26.60;;;;;;;-1.68;78.08;96303.67;104835;1259;101728;-75
2023/11/27 10:09:13;;;;;;;45.00;27.90;;;;;;;-1.64;78.01;96304.44;104759;1261;100108;-82
2023/11/27 10:11:44;;;;;;;35.70;24.40;;;;;;;-1.58;77.98;96302.37;104707;1271;97967;-83
2023/11/27 10:14:12;;;;;;;32.90;23.20;;;;;;;-1.50;77.89;96301.13;104899;1260;98473;-83
2023/11/27 10:16:40;;;;;;;30.70;22.70;;;;;;;-1.42;77.82;96300.34;104855;1270;102627;-75
2023/11/27 10:19:16;;;;;;;33.80;23.60;;;;;;;-1.33;77.70;96298.61;104738;1270;100365;-74
2023/11/27 10:21:44;;;;;;;27.60;20.10;;;;;;;-1.21;77.75;96295.52;104552;1262;100191;-75
2023/11/27 10:24:13;;;;;;;28.40;20.40;;;;;;;-1.08;77.60;96294.81;104721;1260;99321;-76
2023/11/27 10:26:42;;;;;;;25.80;19.00;;;;;;;-0.95;77.48;96290.38;104629;1263;98547;-84
2023/11/27 10:29:25;;;;;;;21.30;18.30;;;;;;;-0.82;77.23;96286.62;104519;1257;102899;-73
2023/11/27 10:32:00;;;;;;;25.30;20.10;;;;;;;-0.71;77.03;96286.69;104525;1273;101183;-75
2023/11/27 10:34:33;;;;;;;25.80;19.30;;;;;;;-0.60;76.82;96287.00;104826;1263;99972;-74
2023/11/27 10:37:02;;;;;;;24.10;19.60;;;;;;;-0.52;76.30;96285.60;104712;1274;97907;-73
2023/11/27 10:39:32;;;;;;;31.90;22.30;;;;;;;-0.51;75.98;96285.54;104594;1265;98652;-74
2023/11/27 10:42:03;;;;;;;31.80;23.30;;;;;;;-0.51;75.92;96283.91;104857;1260;102431;-76
2023/11/27 10:44:36;;;;;;;35.60;23.90;;;;;;;-0.47;75.93;96277.95;104754;1259;100055;-74
2023/11/27 10:47:07;;;;;;;29.00;21.30;;;;;;;-0.45;75.75;96274.73;104770;1259;99126;-84
2023/11/27 10:49:41;;;;;;;31.70;23.00;;;;;;;-0.44;75.74;96271.41;104749;1260;99339;-74
2023/11/27 10:52:11;;;;;;;31.80;22.20;;;;;;;-0.38;75.77;96269.71;105004;1267;98498;-76
2023/11/27 10:54:41;;;;;;;31.60;23.20;;;;;;;-0.28;75.61;96266.73;104901;1260;110842;-75
2023/11/27 10:57:10;;;;;;;34.10;22.60;;;;;;;-0.21;75.41;96268.92;104763;1263;101555;-75
2023/11/27 10:59:41;;;;;;;28.20;21.50;;;;;;;-0.14;75.42;96264.90;104514;1273;100159;-74
2023/11/27 11:02:12;;;;;;;24.70;17.40;;;;;;;-0.06;75.16;96260.13;104663;1262;97961;-83
2023/11/27 11:04:53;;;;;;;31.30;22.50;;;;;;;-0.03;74.82;96259.06;104733;1263;98361;-74
2023/11/27 11:07:29;;;;;;;31.40;22.50;;;;;;;-0.05;74.61;96251.30;104733;1256;103719;-81
2023/11/27 11:09:59;;;;;;;30.30;21.50;;;;;;;-0.12;74.39;96244.15;104727;1269;101492;-81
2023/11/27 11:12:28;;;;;;;33.50;22.00;;;;;;;-0.14;74.46;96247.05;104526;1263;99247;-82
2023/11/27 11:14:56;;;;;;;37.30;26.60;;;;;;;-0.15;74.39;96244.20;104711;1261;98950;-82
2023/11/27 11:17:25;;;;;;;39.60;28.60;;;;;;;-0.16;74.49;96241.14;104739;1269;98414;-74
2023/11/27 11:20:25;;;;;;;53.50;38.70;;;;;;;-0.15;74.53;96241.54;104794;1270;103778;-76
2023/11/27 11:23:39;;;;;;;53.40;37.00;;;;;;;-0.15;74.32;96239.95;104633;1263;101481;-76
2023/11/27 11:26:45;;;;;;;57.60;39.10;;;;;;;-0.20;74.19;96237.89;104722;1269;98659;-74
2023/11/27 11:29:23;;;;;;;60.50;39.00;;;;;;;-0.27;74.09;96231.63;104722;1255;97899;-83
2023/11/27 11:32:16;;;;;;;54.20;35.10;;;;;;;-0.29;74.20;96228.35;104663;1274;98453;-84
2023/11/27 11:34:49;;;;;;;50.40;32.60;;;;;;;-0.35;74.14;96226.48;104762;1273;102309;-85
2023/11/27 11:37:18;;;;;;;51.00;33.60;;;;;;;-0.42;74.10;96224.19;104742;1262;100426;-85
2023/11/27 11:39:46;;;;;;;54.00;34.10;;;;;;;-0.48;74.05;96221.69;104768;1269;99242;-85
2023/11/27 11:42:17;;;;;;;53.00;37.70;;;;;;;-0.52;74.00;96216.58;104765;1263;98375;-76
2023/11/27 11:45:16;;;;;;;72.40;48.00;;;;;;;-0.57;73.98;96212.67;104759;1260;98462;-75
2023/11/27 11:47:57;;;;;;;70.00;46.00;;;;;;;-0.61;73.90;96213.37;104852;1269;103376;-82
2023/11/27 11:50:33;;;;;;;64.50;45.00;;;;;;;-0.65;73.98;96209.40;104707;1270;101451;-83
2023/11/27 11:53:30;;;;;;;54.60;36.50;;;;;;;-0.69;74.04;96205.53;104746;1261;99811;-85
2023/11/27 11:55:58;;;;;;;74.10;46.90;;;;;;;-0.73;74.02;96205.86;104737;1261;97986;-82
2023/11/27 11:58:28;;;;;;;88.90;50.10;;;;;;;-0.76;74.02;96204.44;104756;1257;98422;-81
2023/11/27 12:01:03;;;;;;;85.00;47.40;;;;;;;-0.79;74.01;96205.03;104687;1262;102266;-85
2023/11/27 12:03:32;;;;;;;84.70;47.50;;;;;;;-0.81;73.97;96200.51;106296;1262;101524;-81
2023/11/27 12:06:08;;;;;;;83.80;47.70;;;;;;;-0.83;73.97;96198.41;104613;1274;99309;-83
2023/11/27 12:08:39;;;;;;;73.00;45.20;;;;;;;-0.84;73.89;96198.05;104740;1260;98025;-83
2023/11/27 12:11:08;;;;;;;77.80;46.80;;;;;;;-0.86;73.92;96194.51;104837;1260;98440;-82
2023/11/27 12:13:36;;;;;;;81.50;48.50;;;;;;;-0.86;73.94;96191.79;104843;1269;103690;-82
2023/11/27 12:16:11;;;;;;;84.50;50.20;;;;;;;-0.87;73.77;96188.85;104834;1257;100126;-82
2023/11/27 12:18:50;;;;;;;89.20;52.90;;;;;;;-0.85;73.84;96185.64;104952;1260;99349;-82
2023/11/27 12:21:22;;;;;;;85.80;50.80;;;;;;;-0.80;73.93;96181.85;104792;1262;97922;-73
2023/11/27 12:23:51;;;;;;;82.50;51.30;;;;;;;-0.71;73.92;96179.14;104683;1264;98041;-74
2023/11/27 12:26:22;;;;;;;77.40;47.60;;;;;;;-0.62;73.92;96178.94;104573;1264;102420;-73
2023/11/27 12:28:51;;;;;;;73.60;46.20;;;;;;;-0.48;73.99;96175.96;104761;1262;100542;-72
2023/11/27 12:31:21;;;;;;;70.70;44.70;;;;;;;-0.35;73.89;96173.26;104771;1257;99968;-75
2023/11/27 12:33:49;;;;;;;66.10;42.10;;;;;;;-0.23;73.84;96168.67;104799;1266;98047;-75
2023/11/27 12:36:20;;;;;;;56.70;38.70;;;;;;;-0.10;73.83;96164.75;104715;1263;98444;-74
2023/11/27 12:38:52;;;;;;;53.50;35.40;;;;;;;0.04;73.59;96164.36;104728;1258;103729;-75
2023/11/27 12:41:32;;;;;;;35.30;22.00;;;;;;;0.15;73.37;96165.92;104751;1269;100394;-76
2023/11/27 12:44:13;;;;;;;36.30;24.60;;;;;;;0.25;73.19;96160.63;104668;1261;99635;-74
2023/11/27 12:46:48;;;;;;;33.70;21.20;;;;;;;0.41;73.02;96160.54;104817;1270;99268;-75
2023/11/27 12:49:33;;;;;;;26.10;18.30;;;;;;;0.57;72.62;96155.33;104571;1262;98473;-76
2023/11/27 12:52:10;;;;;;;26.80;18.40;;;;;;;0.70;72.26;96154.80;104574;1272;102700;-76
2023/11/27 12:54:38;;;;;;;27.30;18.10;;;;;;;0.82;72.28;96151.70;104717;1262;100423;-75
2023/11/27 12:57:09;;;;;;;33.60;21.20;;;;;;;0.91;72.08;96144.53;104939;1260;99266;-75
2023/11/27 12:59:40;;;;;;;36.60;23.10;;;;;;;0.96;71.81;96141.79;104673;1265;98099;-76
2023/11/27 13:02:15;;;;;;;41.30;21.90;;;;;;;1.02;71.69;96139.16;104755;1263;97972;-82
2023/11/27 13:04:43;;;;;;;53.70;24.80;;;;;;;1.20;71.61;96132.29;104790;1260;112550;-81
2023/11/27 13:07:14;;;;;;;53.80;23.60;;;;;;;1.40;71.47;96130.52;104727;1257;100410;-82
2023/11/27 13:09:45;;;;;;;53.90;25.00;;;;;;;1.58;71.19;96130.05;104819;1260;98716;-82
2023/11/27 13:12:25;;;;;;;42.60;22.40;;;;;;;1.67;70.38;96132.46;104882;1257;97944;-82
2023/11/27 13:15:10;;;;;;;50.10;23.90;;;;;;;1.67;69.95;96132.98;104547;1269;308135;-82
2023/11/27 13:17:39;;;;;;;40.30;21.60;;;;;;;1.72;69.88;96132.96;104870;1270;103599;-74
2023/11/27 13:20:17;;;;;;;38.40;20.60;;;;;;;1.65;69.64;96131.36;104694;1264;101451;-81
2023/11/27 13:22:45;;;;;;;39.60;20.50;;;;;;;1.57;69.58;96133.75;104654;1257;98748;-77
2023/11/27 13:25:16;;;;;;;39.10;22.30;;;;;;;1.48;69.71;96134.27;104740;1258;97943;-76
2023/11/27 13:27:48;;;;;;;39.40;23.70;;;;;;;1.38;69.57;96135.48;104820;1259;99609;-76
2023/11/27 13:30:26;;;;;;;39.70;23.40;;;;;;;1.27;69.51;96132.92;104792;1260;103825;-76
2023/11/27 13:33:11;;;;;;;35.80;24.00;;;;;;;1.21;69.61;96130.19;104837;1261;100141;-83
2023/11/27 13:35:48;;;;;;;38.10;24.10;;;;;;;1.16;69.79;96126.52;104807;1270;100525;-83
2023/11/27 13:38:17;;;;;;;32.90;23.30;;;;;;;1.08;69.68;96124.98;104816;1265;97919;-76
2023/11/27 13:40:54;;;;;;;37.30;24.40;;;;;;;0.97;69.61;96122.67;104857;1260;98413;-76
2023/11/27 13:43:51;;;;;;;39.50;23.90;;;;;;;0.89;69.61;96123.03;104531;1276;102691;-77
2023/11/27 13:46:19;;;;;;;39.60;25.90;;;;;;;0.79;69.79;96118.43;104778;1261;101513;-83
2023/11/27 13:48:48;;;;;;;58.80;31.50;;;;;;;0.72;69.96;96119.65;104794;1257;108395;-84
2023/11/27 13:51:16;;;;;;;48.00;29.50;;;;;;;0.70;70.13;96114.64;104724;1260;98469;-83
2023/11/27 13:53:47;;;;;;;47.50;27.90;;;;;;;0.67;70.26;96109.85;104768;1260;97822;-83
2023/11/27 13:56:18;;;;;;;43.20;27.50;;;;;;;0.62;70.06;96113.40;104647;1257;103755;-86
2023/11/27 13:58:51;;;;;;;40.30;26.50;;;;;;;0.53;70.04;96115.34;104644;1273;101281;-83
2023/11/27 14:01:23;;;;;;;43.60;26.80;;;;;;;0.47;70.34;96118.89;104805;1261;100384;-76
2023/11/27 14:03:51;;;;;;;42.60;27.40;;;;;;;0.43;70.29;96117.92;104707;1275;97917;-76
2023/11/27 14:06:23;;;;;;;43.60;27.50;;;;;;;0.35;70.14;96123.55;104781;1260;98500;-76
2023/11/27 14:08:54;;;;;;;43.80;27.80;;;;;;;0.25;69.99;96127.06;104846;1259;103619;-75
2023/11/27 14:11:27;;;;;;;40.50;26.40;;;;;;;0.16;70.12;96125.56;104784;1277;101537;-77
2023/11/27 14:13:58;;;;;;;36.80;25.30;;;;;;;0.09;69.97;96123.23;104849;1270;100141;-75
2023/11/27 14:16:29;;;;;;;32.20;23.60;;;;;;;0.01;70.25;96121.18;104913;1260;97961;-83
2023/11/27 14:24:44;;;;;;;29.90;21.50;;;;;;;-0.15;70.63;96110.39;104612;1261;100235;-75
2023/11/27 14:27:20;;;;;;;34.40;24.40;;;;;;;-0.23;70.47;96109.80;104767;1259;99957;-77
2023/11/27 14:29:49;;;;;;;41.20;27.40;;;;;;;-0.28;70.67;96106.73;104786;1268;97930;-75
2023/11/27 14:32:17;;;;;;;43.60;27.90;;;;;;;-0.38;70.62;96106.88;104814;1261;98520;-75
2023/11/27 14:34:51;;;;;;;44.20;29.40;;;;;;;-0.48;70.50;96101.67;104820;1260;103852;-81
2023/11/27 14:37:20;;;;;;;55.90;36.30;;;;;;;-0.58;70.47;96096.52;104813;1273;100394;-74
2023/11/27 14:39:49;;;;;;;52.80;32.40;;;;;;;-0.70;70.49;96092.55;104520;1275;100038;-77
2023/11/27 14:42:18;;;;;;;51.10;30.70;;;;;;;-0.77;70.42;96091.10;104717;1260;98297;-75
2023/11/27 14:44:46;;;;;;;62.20;38.60;;;;;;;-0.84;70.43;96083.77;104681;1261;98767;-75
2023/11/27 14:47:14;;;;;;;81.70;46.90;;;;;;;-0.93;70.34;96084.98;104769;1267;103767;-84
2023/11/27 14:49:43;;;;;;;75.50;41.80;;;;;;;-1.04;70.38;96078.76;104682;1261;100172;-88
2023/11/27 14:52:12;;;;;;;80.40;46.50;;;;;;;-1.14;70.34;96076.12;104864;1258;100300;-85
2023/11/27 14:54:41;;;;;;;109.20;63.50;;;;;;;-1.21;70.37;96076.08;104717;1260;97907;-74
2023/11/27 14:57:11;;;;;;;102.90;61.00;;;;;;;-1.25;70.50;96073.59;104506;1264;98390;-75
2023/11/27 14:59:39;;;;;;;108.20;61.60;;;;;;;-1.34;70.49;96076.46;104655;1264;103592;-74
2023/11/27 15:02:08;;;;;;;133.10;72.70;;;;;;;-1.42;70.63;96072.44;104927;1260;101578;-84
2023/11/27 15:04:38;;;;;;;122.10;74.40;;;;;;;-1.48;70.83;96070.02;104785;1261;99979;-83
2023/11/27 15:07:08;;;;;;;124.20;75.60;;;;;;;-1.52;71.06;96067.73;104851;1261;99083;-82
2023/11/27 15:09:36;;;;;;;129.60;76.20;;;;;;;-1.55;71.08;96066.88;104801;1270;98492;-83
2023/11/27 15:12:05;;;;;;;167.20;97.20;;;;;;;-1.60;71.05;96067.77;104804;1257;110314;-82
2023/11/27 15:14:33;;;;;;;194.30;113.00;;;;;;;-1.65;71.08;96065.34;104903;1270;99510;-80
2023/11/27 15:17:02;;;;;;;247.00;142.50;;;;;;;-1.70;71.15;96058.45;104813;1257;99861;-82
2023/11/27 15:19:31;;;;;;;216.80;125.10;;;;;;;-1.73;71.24;96056.41;104642;1264;98110;-82
2023/11/27 15:21:59;;;;;;;199.60;120.10;;;;;;;-1.80;71.30;96048.64;104558;1258;98641;-83
2023/11/27 15:24:29;;;;;;;186.10;111.50;;;;;;;-1.87;71.36;96045.02;104755;1260;103563;-83
2023/11/27 15:26:57;;;;;;;158.70;97.10;;;;;;;-1.94;71.46;96041.23;104538;1263;100354;-83
2023/11/27 15:29:30;;;;;;;154.00;94.70;;;;;;;-2.01;71.53;96039.84;104765;1257;99868;-83
2023/11/27 15:31:58;;;;;;;142.80;89.40;;;;;;;-2.04;71.77;96035.23;104849;1259;98764;-76
2023/11/27 15:34:27;;;;;;;146.00;90.10;;;;;;;-2.03;71.95;96030.55;104564;1263;98533;-82
2023/11/27 15:36:55;;;;;;;162.10;95.90;;;;;;;-2.04;71.85;96028.58;104785;1258;103731;-85
2023/11/27 15:39:27;;;;;;;165.10;98.00;;;;;;;-2.06;71.88;96028.39;104765;1272;99566;-83
2023/11/27 15:41:55;;;;;;;150.20;95.00;;;;;;;-2.07;71.92;96024.33;104760;1278;99069;-84
2023/11/27 15:44:24;;;;;;;162.90;101.80;;;;;;;-2.11;71.83;96017.84;104578;1273;98078;-84
2023/11/27 15:46:53;;;;;;;180.60;114.40;;;;;;;-2.17;71.99;96016.85;104812;1260;99662;-84
2023/11/27 15:49:21;;;;;;;171.00;112.00;;;;;;;-2.19;72.04;96012.51;104791;1260;103688;-84
2023/11/27 15:51:49;;;;;;;159.20;107.60;;;;;;;-2.20;72.06;96002.05;104786;1260;101572;-84
2023/11/27 15:54:17;;;;;;;166.20;107.10;;;;;;;-2.25;72.11;95998.58;104653;1261;99151;-83
2023/11/27 15:56:45;;;;;;;170.60;109.20;;;;;;;-2.29;72.08;95995.88;104725;1270;99145;-83
2023/11/27 15:59:13;;;;;;;170.00;107.50;;;;;;;-2.32;72.15;95998.45;104847;1256;99202;-83
2023/11/27 16:01:41;;;;;;;170.50;107.90;;;;;;;-2.34;72.27;96002.73;104749;1259;103785;-75
2023/11/27 16:04:12;;;;;;;172.20;110.80;;;;;;;-2.37;72.28;96005.52;104684;1261;101400;-75
2023/11/27 16:06:39;;;;;;;168.70;106.50;;;;;;;-2.42;72.28;96005.16;104882;1256;100431;-75
2023/11/27 16:09:09;;;;;;;169.80;106.40;;;;;;;-2.46;72.20;96003.48;105133;1260;99265;-75
2023/11/27 16:11:40;;;;;;;172.10;110.90;;;;;;;-2.49;72.13;96002.25;104932;1260;98434;-73
2023/11/27 16:14:12;;;;;;;128.30;83.60;;;;;;;-2.53;72.12;96001.83;104900;1271;103779;-74
2023/11/27 16:16:45;;;;;;;197.30;119.40;;;;;;;-2.57;72.30;95999.96;104724;1257;100337;-75
2023/11/27 16:19:14;;;;;;;206.00;127.70;;;;;;;-2.61;72.29;95994.65;104635;1274;99198;-75
2023/11/27 16:21:42;;;;;;;228.00;143.30;;;;;;;-2.64;72.25;95993.10;104720;1264;98062;-75
2023/11/27 16:24:10;;;;;;;210.60;136.30;;;;;;;-2.68;72.22;95987.16;104873;1256;98674;-75
2023/11/27 16:26:38;;;;;;;221.00;139.60;;;;;;;-2.72;72.26;95985.24;104794;1256;103525;-75
2023/11/27 16:29:07;;;;;;;219.50;138.60;;;;;;;-2.78;72.23;95984.04;104743;1259;100027;-75
2023/11/27 16:31:34;;;;;;;231.10;146.30;;;;;;;-2.81;72.18;95981.20;104857;1256;100108;-75
2023/11/27 16:34:05;;;;;;;244.80;151.20;;;;;;;-2.85;72.28;95979.19;104713;1270;97980;-75
2023/11/27 16:36:33;;;;;;;235.50;152.30;;;;;;;-2.88;72.14;95977.80;104547;1274;98469;-74
2023/11/27 16:39:03;;;;;;;253.70;159.90;;;;;;;-2.94;71.98;95982.08;104828;1261;103500;-75
2023/11/27 16:41:31;;;;;;;252.10;158.70;;;;;;;-3.01;71.92;95980.58;104804;1263;101403;-74
2023/11/27 16:43:59;;;;;;;266.90;164.20;;;;;;;-3.07;72.02;95979.58;104756;1260;100031;-75
2023/11/27 16:46:28;;;;;;;284.00;150.80;;;;;;;-3.12;72.07;95979.64;104808;1260;97954;-84
2023/11/27 16:48:57;;;;;;;232.00;128.20;;;;;;;-3.19;72.25;95981.64;104517;1268;98556;-82
2023/11/27 16:51:28;;;;;;;223.80;123.90;;;;;;;-3.23;72.23;95975.31;104829;1259;103496;-83
2023/11/27 16:53:57;;;;;;;216.10;121.50;;;;;;;-3.28;72.09;95971.75;104657;1264;101495;-84
2023/11/27 16:56:28;;;;;;;191.20;112.40;;;;;;;-3.35;72.32;95967.92;104736;1256;100186;-83
2023/11/27 16:58:56;;;;;;;167.00;100.50;;;;;;;-3.41;72.36;95965.58;104870;1256;98371;-84
2023/11/27 17:01:25;;;;;;;187.40;106.40;;;;;;;-3.47;72.42;95969.38;104831;1256;98364;-72
2023/11/27 17:03:54;;;;;;;194.90;114.00;;;;;;;-3.53;72.52;95968.77;104805;1256;102390;-73
2023/11/27 17:06:21;;;;;;;222.30;131.50;;;;;;;-3.58;72.65;95964.55;104783;1257;101452;-73
2023/11/27 17:08:49;;;;;;;230.90;137.40;;;;;;;-3.61;72.78;95964.38;104691;1261;99619;-83
2023/11/27 17:11:18;;;;;;;254.50;151.60;;;;;;;-3.64;72.90;95959.77;104574;1260;99259;-83
2023/11/27 17:13:47;;;;;;;256.80;152.90;;;;;;;-3.67;73.09;95955.99;104829;1259;99181;-82
2023/11/27 17:16:15;;;;;;;262.10;156.70;;;;;;;-3.68;73.31;95959.15;104813;1260;103675;-75
2023/11/27 17:18:43;;;;;;;247.30;145.90;;;;;;;-3.68;73.36;95961.23;104768;1260;100117;-75
2023/11/27 17:21:11;;;;;;;245.10;145.80;;;;;;;-3.68;73.58;95959.27;104807;1259;100195;-74
2023/11/27 17:23:40;;;;;;;251.50;149.80;;;;;;;-3.68;73.68;95955.55;104756;1261;98007;-74
2023/11/27 17:26:08;;;;;;;246.00;149.10;;;;;;;-3.68;73.74;95954.37;104871;1260;99623;-75
2023/11/27 17:28:36;;;;;;;236.60;149.40;;;;;;;-3.70;73.85;95949.51;104728;1259;102151;-74
2023/11/27 17:31:07;;;;;;;213.40;135.10;;;;;;;-3.69;74.05;95944.11;104764;1259;100433;-75
2023/11/27 17:33:37;;;;;;;193.80;122.70;;;;;;;-3.65;74.22;95943.11;104526;1258;99572;-76
2023/11/27 17:36:05;;;;;;;195.10;124.20;;;;;;;-3.61;74.33;95941.83;104646;1256;98558;-75
2023/11/27 17:38:34;;;;;;;160.30;99.60;;;;;;;-3.57;74.40;95943.72;104793;1256;98458;-75
2023/11/27 17:41:03;;;;;;;153.30;100.40;;;;;;;-3.55;74.46;95947.20;104836;1270;103478;-75
2023/11/27 17:43:31;;;;;;;264.50;160.20;;;;;;;-3.52;74.44;95950.29;104736;1260;101350;-74
2023/11/27 17:45:59;;;;;;;294.20;179.20;;;;;;;-3.50;74.53;95946.61;104757;1259;100666;-72
2023/11/27 17:48:27;;;;;;;290.30;172.10;;;;;;;-3.48;74.57;95943.98;104732;1260;97958;-73
2023/11/27 17:50:55;;;;;;;284.40;171.10;;;;;;;-3.49;74.50;95944.13;104786;1260;98555;-74
2023/11/27 17:53:23;;;;;;;304.40;169.20;;;;;;;-3.49;74.56;95940.74;104723;1265;103626;-75
2023/11/27 17:55:51;;;;;;;312.40;172.40;;;;;;;-3.48;74.70;95936.39;104809;1257;101608;-75
2023/11/27 17:58:19;;;;;;;267.20;152.10;;;;;;;-3.45;74.74;95932.81;104777;1264;100175;-74
2023/11/27 18:00:51;;;;;;;234.80;145.30;;;;;;;-3.44;74.93;95925.96;104781;1268;97928;-74
2023/11/27 18:03:19;;;;;;;184.90;109.70;;;;;;;-3.42;75.07;95924.55;104823;1259;98879;-74
2023/11/27 18:05:47;;;;;;;234.80;140.60;;;;;;;-3.41;75.15;95924.39;104804;1270;103525;-75
2023/11/27 18:08:15;;;;;;;225.60;137.80;;;;;;;-3.38;75.13;95918.64;104784;1259;100434;-86
2023/11/27 18:10:44;;;;;;;228.40;134.70;;;;;;;-3.37;75.23;95914.45;104817;1259;99958;-74
2023/11/27 18:13:12;;;;;;;216.50;131.90;;;;;;;-3.34;75.28;95911.37;104724;1259;98286;-78
2023/11/27 18:15:40;;;;;;;197.20;119.30;;;;;;;-3.31;75.41;95910.39;104689;1260;98856;-81
2023/11/27 18:18:08;;;;;;;222.60;134.90;;;;;;;-3.30;75.44;95911.12;104795;1261;103390;-82
2023/11/27 18:20:36;;;;;;;265.50;160.00;;;;;;;-3.27;75.45;95909.25;104807;1257;101534;-82
2023/11/27 18:23:04;;;;;;;296.20;178.80;;;;;;;-3.25;75.41;95906.70;104837;1272;100154;-83
2023/11/27 18:25:32;;;;;;;306.30;190.90;;;;;;;-3.23;75.56;95904.77;104740;1259;99273;-75
2023/11/27 18:28:00;;;;;;;306.60;186.80;;;;;;;-3.21;75.64;95902.82;104833;1261;98532;-76
2023/11/27 18:30:28;;;;;;;305.80;183.70;;;;;;;-3.19;75.61;95894.22;104884;1255;103615;-74
2023/11/27 18:32:56;;;;;;;298.20;181.30;;;;;;;-3.18;75.59;95894.38;104792;1255;101570;-77
2023/11/27 18:35:24;;;;;;;296.70;181.10;;;;;;;-3.16;75.73;95891.42;104749;1270;98380;-76
2023/11/27 18:37:52;;;;;;;282.40;172.20;;;;;;;-3.16;75.85;95888.95;104704;1259;97934;-76
2023/11/27 18:40:19;;;;;;;276.60;171.90;;;;;;;-3.16;75.93;95885.02;104740;1259;98449;-75
2023/11/27 18:42:48;;;;;;;285.90;171.00;;;;;;;-3.14;75.93;95884.45;104865;1259;103827;-75
2023/11/27 18:45:19;;;;;;;281.90;173.10;;;;;;;-3.11;76.01;95879.95;104776;1259;100163;-75
2023/11/27 18:47:48;;;;;;;274.20;167.90;;;;;;;-3.11;76.01;95877.65;104829;1273;99665;-83
2023/11/27 18:50:17;;;;;;;272.50;163.10;;;;;;;-3.09;76.11;95878.88;104789;1259;97937;-83
2023/11/27 18:52:44;;;;;;;273.00;161.90;;;;;;;-3.07;76.22;95878.02;104763;1261;98452;-84
2023/11/27 18:55:12;;;;;;;262.60;157.40;;;;;;;-3.06;76.24;95876.17;104840;1269;102588;-83
2023/11/27 18:57:40;;;;;;;251.30;155.30;;;;;;;-3.05;76.19;95871.86;104896;1268;101615;-83
2023/11/27 19:00:14;;;;;;;254.40;156.50;;;;;;;-3.05;76.28;95868.52;104853;1261;99564;-82
2023/11/27 19:02:42;;;;;;;238.90;148.30;;;;;;;-3.05;76.35;95865.52;104877;1259;98001;-84
2023/11/27 19:05:12;;;;;;;228.50;141.10;;;;;;;-3.05;76.32;95855.69;104810;1259;97907;-75
2023/11/27 19:07:40;;;;;;;222.50;140.10;;;;;;;-3.04;76.37;95847.48;104803;1270;103420;-75